sensor_id;sensor_type;location;lat;lon;timestamp;pressure;altitude;pressure_sealevel;temperature;humidity
67397;BME280;57728;50.448;18.824;2023-03-04T00:01:11;97844.84;;;0.40;75.26
67397;BME280;57728;50.448;18.824;2023-03-04T00:03:13;97902.72;;;0.74;75.50
67397;BME280;57728;50.448;18.824;2023-03-04T00:05:17;97887.13;;;0.69;75.61
67397;BME280;57728;50.448;18.824;2023-03-04T00:07:19;97808.56;;;0.21;75.49
67397;BME280;57728;50.448;18.824;2023-03-04T00:09:23;97894.16;;;0.78;75.46
67397;BME280;57728;50.448;18.824;2023-03-04T00:11:25;97857.53;;;0.62;75.30
67397;BME280;57728;50.448;18.824;2023-03-04T00:13:26;97843.28;;;0.54;75.32
67397;BME280;57728;50.448;18.824;2023-03-04T00:15:29;97868.38;;;0.69;75.41
67397;BME280;57728;50.448;18.824;2023-03-04T00:17:30;97819.72;;;0.41;75.29
67397;BME280;57728;50.448;18.824;2023-03-04T00:19:32;97791.31;;;0.23;75.35
67397;BME280;57728;50.448;18.824;2023-03-04T00:21:35;97789.34;;;0.17;75.32
67397;BME280;57728;50.448;18.824;2023-03-04T00:23:37;97851.84;;;0.49;75.36
67397;BME280;57728;50.448;18.824;2023-03-04T00:25:41;97771.59;;;0.08;75.58
67397;BME280;57728;50.448;18.824;2023-03-04T00:27:43;97852.66;;;0.49;75.58
67397;BME280;57728;50.448;18.824;2023-03-04T00:29:45;97868.00;;;0.72;75.47
67397;BME280;57728;50.448;18.824;2023-03-04T00:31:46;97838.78;;;0.54;75.48
67397;BME280;57728;50.448;18.824;2023-03-04T00:33:49;97835.06;;;0.55;75.65
67397;BME280;57728;50.448;18.824;2023-03-04T00:35:50;97809.19;;;0.39;75.50
67397;BME280;57728;50.448;18.824;2023-03-04T00:37:52;97860.47;;;0.76;75.78
67397;BME280;57728;50.448;18.824;2023-03-04T00:39:54;97798.47;;;0.39;75.55
67397;BME280;57728;50.448;18.824;2023-03-04T00:41:55;97821.84;;;0.54;75.56
67397;BME280;57728;50.448;18.824;2023-03-04T00:43:57;97752.34;;;0.12;75.62
67397;BME280;57728;50.448;18.824;2023-03-04T00:45:59;97842.69;;;0.83;75.87
67397;BME280;57728;50.448;18.824;2023-03-04T00:48:01;97838.19;;;0.83;75.63
67397;BME280;57728;50.448;18.824;2023-03-04T00:50:03;97764.81;;;0.37;75.53
67397;BME280;57728;50.448;18.824;2023-03-04T00:52:06;97830.19;;;0.75;75.82
67397;BME280;57728;50.448;18.824;2023-03-04T00:54:07;97831.69;;;0.70;75.83
67397;BME280;57728;50.448;18.824;2023-03-04T00:56:08;97707.56;;;-0.10;76.03
67397;BME280;57728;50.448;18.824;2023-03-04T00:58:11;97728.78;;;-0.01;76.00
67397;BME280;57728;50.448;18.824;2023-03-04T01:00:13;97644.44;;;-0.53;76.21
67397;BME280;57728;50.448;18.824;2023-03-04T01:02:15;97651.97;;;-0.48;76.17
67397;BME280;57728;50.448;18.824;2023-03-04T01:04:17;97721.09;;;-0.04;76.40
67397;BME280;57728;50.448;18.824;2023-03-04T01:06:19;97826.88;;;0.57;76.38
67397;BME280;57728;50.448;18.824;2023-03-04T01:08:20;97785.41;;;0.44;76.43
67397;BME280;57728;50.448;18.824;2023-03-04T01:10:22;97778.22;;;0.37;76.53
67397;BME280;57728;50.448;18.824;2023-03-04T01:12:24;97610.38;;;-0.67;76.48
67397;BME280;57728;50.448;18.824;2023-03-04T01:14:25;97700.88;;;-0.06;76.53
67397;BME280;57728;50.448;18.824;2023-03-04T01:16:28;97782.91;;;0.43;76.68
67397;BME280;57728;50.448;18.824;2023-03-04T01:18:29;97793.91;;;0.48;76.68
67397;BME280;57728;50.448;18.824;2023-03-04T01:20:31;97770.84;;;0.39;76.72
67397;BME280;57728;50.448;18.824;2023-03-04T01:22:33;97758.47;;;0.38;76.63
67397;BME280;57728;50.448;18.824;2023-03-04T01:24:35;97784.16;;;0.63;76.50
67397;BME280;57728;50.448;18.824;2023-03-04T01:26:37;97756.41;;;0.48;76.36
67397;BME280;57728;50.448;18.824;2023-03-04T01:28:39;97705.31;;;0.18;76.23
67397;BME280;57728;50.448;18.824;2023-03-04T01:30:41;97665.59;;;-0.10;76.21
67397;BME280;57728;50.448;18.824;2023-03-04T01:32:42;97765.41;;;0.55;76.40
67397;BME280;57728;50.448;18.824;2023-03-04T01:34:46;97585.13;;;-0.56;76.42
67397;BME280;57728;50.448;18.824;2023-03-04T01:36:47;97759.41;;;0.53;76.35
67397;BME280;57728;50.448;18.824;2023-03-04T01:38:49;97772.81;;;0.53;76.51
67397;BME280;57728;50.448;18.824;2023-03-04T01:40:51;97688.63;;;0.08;76.47
67397;BME280;57728;50.448;18.824;2023-03-04T01:42:53;97680.06;;;0.12;76.83
67397;BME280;57728;50.448;18.824;2023-03-04T01:44:55;97762.41;;;0.58;76.73
67397;BME280;57728;50.448;18.824;2023-03-04T01:46:58;97747.81;;;0.61;76.69
67397;BME280;57728;50.448;18.824;2023-03-04T01:48:59;97736.63;;;0.57;76.52
67397;BME280;57728;50.448;18.824;2023-03-04T01:51:03;97742.59;;;0.67;76.47
67397;BME280;57728;50.448;18.824;2023-03-04T01:53:18;97706.94;;;0.36;76.40
67397;BME280;57728;50.448;18.824;2023-03-04T01:55:22;97596.09;;;-0.26;76.47
67397;BME280;57728;50.448;18.824;2023-03-04T01:57:25;97759.03;;;0.64;76.50
67397;BME280;57728;50.448;18.824;2023-03-04T01:59:30;97706.59;;;0.39;76.38
67397;BME280;57728;50.448;18.824;2023-03-04T02:01:31;97747.34;;;0.57;76.56
67397;BME280;57728;50.448;18.824;2023-03-04T02:03:33;97753.72;;;0.56;76.73
67397;BME280;57728;50.448;18.824;2023-03-04T02:05:39;97716.13;;;0.41;76.76
67397;BME280;57728;50.448;18.824;2023-03-04T02:07:44;97734.59;;;0.59;76.73
67397;BME280;57728;50.448;18.824;2023-03-04T02:09:45;97732.94;;;0.58;76.90
67397;BME280;57728;50.448;18.824;2023-03-04T02:11:52;97688.69;;;0.31;76.76
67397;BME280;57728;50.448;18.824;2023-03-04T02:13:53;97706.53;;;0.47;76.82
67397;BME280;57728;50.448;18.824;2023-03-04T02:15:55;97534.34;;;-0.56;76.67
67397;BME280;57728;50.448;18.824;2023-03-04T02:17:57;97584.56;;;-0.27;76.53
67397;BME280;57728;50.448;18.824;2023-03-04T02:22:19;97657.47;;;0.15;76.78
67397;BME280;57728;50.448;18.824;2023-03-04T02:24:26;97720.72;;;0.56;76.95
67397;BME280;57728;50.448;18.824;2023-03-04T02:26:34;97667.63;;;0.28;76.88
67397;BME280;57728;50.448;18.824;2023-03-04T02:28:37;97675.81;;;0.26;76.85
67397;BME280;57728;50.448;18.824;2023-03-04T02:30:39;97720.41;;;0.50;76.79
67397;BME280;57728;50.448;18.824;2023-03-04T02:32:41;97660.16;;;0.15;76.96
67397;BME280;57728;50.448;18.824;2023-03-04T02:34:49;97732.47;;;0.46;77.01
67397;BME280;57728;50.448;18.824;2023-03-04T02:36:53;97628.09;;;-0.02;77.11
67397;BME280;57728;50.448;18.824;2023-03-04T02:39:02;97705.88;;;0.45;77.26
67397;BME280;57728;50.448;18.824;2023-03-04T02:41:11;97660.84;;;0.09;77.17
67397;BME280;57728;50.448;18.824;2023-03-04T02:43:18;97545.50;;;-0.53;77.11
67397;BME280;57728;50.448;18.824;2023-03-04T02:45:48;97688.84;;;0.38;77.09
67397;BME280;57728;50.448;18.824;2023-03-04T02:47:50;97638.94;;;0.05;77.07
67397;BME280;57728;50.448;18.824;2023-03-04T02:49:53;97532.31;;;-0.54;77.17
67397;BME280;57728;50.448;18.824;2023-03-04T02:52:08;97642.09;;;0.17;77.04
67397;BME280;57728;50.448;18.824;2023-03-04T02:54:18;97677.13;;;0.39;77.01
67397;BME280;57728;50.448;18.824;2023-03-04T02:56:22;97644.44;;;0.12;76.82
67397;BME280;57728;50.448;18.824;2023-03-04T02:58:23;97690.19;;;0.33;77.07
67397;BME280;57728;50.448;18.824;2023-03-04T03:00:26;97622.63;;;-0.08;76.76
67397;BME280;57728;50.448;18.824;2023-03-04T03:02:29;97610.09;;;-0.24;76.88
67397;BME280;57728;50.448;18.824;2023-03-04T03:04:32;97691.16;;;0.41;77.04
67397;BME280;57728;50.448;18.824;2023-03-04T03:06:41;97608.03;;;-0.06;76.67
67397;BME280;57728;50.448;18.824;2023-03-04T03:08:43;97690.31;;;0.48;76.77
67397;BME280;57728;50.448;18.824;2023-03-04T03:10:44;97697.16;;;0.51;76.63
67397;BME280;57728;50.448;18.824;2023-03-04T03:12:46;97641.41;;;0.15;76.36
67397;BME280;57728;50.448;18.824;2023-03-04T03:14:49;97705.19;;;0.51;76.35
67397;BME280;57728;50.448;18.824;2023-03-04T03:16:53;97650.41;;;0.22;76.29
67397;BME280;57728;50.448;18.824;2023-03-04T03:18:55;97693.16;;;0.47;76.18
67397;BME280;57728;50.448;18.824;2023-03-04T03:20:59;97657.75;;;0.28;76.11
67397;BME280;57728;50.448;18.824;2023-03-04T03:23:00;97576.47;;;-0.19;76.42
67397;BME280;57728;50.448;18.824;2023-03-04T03:25:03;97677.41;;;0.44;76.29
67397;BME280;57728;50.448;18.824;2023-03-04T03:27:06;97703.16;;;0.53;76.11
67397;BME280;57728;50.448;18.824;2023-03-04T03:29:08;97646.56;;;0.25;75.75
67397;BME280;57728;50.448;18.824;2023-03-04T03:31:09;97682.44;;;0.47;75.85
67397;BME280;57728;50.448;18.824;2023-03-04T03:33:12;97614.84;;;0.05;75.99
67397;BME280;57728;50.448;18.824;2023-03-04T03:35:14;97616.53;;;0.06;75.82
67397;BME280;57728;50.448;18.824;2023-03-04T03:37:16;97640.41;;;0.16;75.93
67397;BME280;57728;50.448;18.824;2023-03-04T03:39:18;97579.03;;;-0.25;76.03
67397;BME280;57728;50.448;18.824;2023-03-04T03:41:20;97641.06;;;0.18;76.06
67397;BME280;57728;50.448;18.824;2023-03-04T03:43:21;97657.41;;;0.31;76.50
67397;BME280;57728;50.448;18.824;2023-03-04T03:45:24;97625.66;;;0.20;76.08
67397;BME280;57728;50.448;18.824;2023-03-04T03:47:25;97648.03;;;0.36;75.99
67397;BME280;57728;50.448;18.824;2023-03-04T03:49:27;97675.72;;;0.51;76.01
67397;BME280;57728;50.448;18.824;2023-03-04T03:51:29;97683.91;;;0.49;76.09
67397;BME280;57728;50.448;18.824;2023-03-04T03:53:30;97674.22;;;0.48;76.08
67397;BME280;57728;50.448;18.824;2023-03-04T03:55:32;97676.91;;;0.48;76.10
67397;BME280;57728;50.448;18.824;2023-03-04T03:57:34;97653.69;;;0.32;76.31
67397;BME280;57728;50.448;18.824;2023-03-04T03:59:36;97621.66;;;0.16;76.09
67397;BME280;57728;50.448;18.824;2023-03-04T04:01:37;97600.94;;;0.10;76.32
67397;BME280;57728;50.448;18.824;2023-03-04T04:03:39;97671.66;;;0.55;76.29
67397;BME280;57728;50.448;18.824;2023-03-04T04:05:41;97642.66;;;0.36;76.00
67397;BME280;57728;50.448;18.824;2023-03-04T04:07:42;97668.50;;;0.51;76.01
67397;BME280;57728;50.448;18.824;2023-03-04T04:09:45;97661.47;;;0.50;76.24
67397;BME280;57728;50.448;18.824;2023-03-04T04:11:49;97586.63;;;-0.06;76.07
67397;BME280;57728;50.448;18.824;2023-03-04T04:13:50;97670.06;;;0.46;76.32
67397;BME280;57728;50.448;18.824;2023-03-04T04:15:53;97649.16;;;0.41;76.18
67397;BME280;57728;50.448;18.824;2023-03-04T04:17:54;97659.69;;;0.43;76.50
67397;BME280;57728;50.448;18.824;2023-03-04T04:19:56;97641.34;;;0.31;76.77
67397;BME280;57728;50.448;18.824;2023-03-04T04:21:58;97655.88;;;0.37;76.74
67397;BME280;57728;50.448;18.824;2023-03-04T04:23:59;97665.66;;;0.53;76.73
67397;BME280;57728;50.448;18.824;2023-03-04T04:26:01;97654.13;;;0.53;76.77
67397;BME280;57728;50.448;18.824;2023-03-04T04:28:03;97666.44;;;0.62;76.49
67397;BME280;57728;50.448;18.824;2023-03-04T04:30:07;97600.22;;;0.24;76.45
67397;BME280;57728;50.448;18.824;2023-03-04T04:32:11;97647.22;;;0.58;76.63
67397;BME280;57728;50.448;18.824;2023-03-04T04:34:13;97662.22;;;0.67;76.32
67397;BME280;57728;50.448;18.824;2023-03-04T04:36:16;97630.88;;;0.45;76.27
67397;BME280;57728;50.448;18.824;2023-03-04T04:38:18;97662.91;;;0.70;76.33
67397;BME280;57728;50.448;18.824;2023-03-04T04:40:20;97656.03;;;0.67;76.26
67397;BME280;57728;50.448;18.824;2023-03-04T04:42:22;97586.47;;;0.27;76.14
67397;BME280;57728;50.448;18.824;2023-03-04T04:44:23;97651.81;;;0.73;76.07
67397;BME280;57728;50.448;18.824;2023-03-04T04:46:26;97640.66;;;0.61;75.53
67397;BME280;57728;50.448;18.824;2023-03-04T04:48:27;97637.16;;;0.60;75.45
67397;BME280;57728;50.448;18.824;2023-03-04T04:50:28;97649.38;;;0.63;75.27
67397;BME280;57728;50.448;18.824;2023-03-04T04:52:31;97649.00;;;0.66;75.33
67397;BME280;57728;50.448;18.824;2023-03-04T04:54:32;97645.88;;;0.62;75.33
67397;BME280;57728;50.448;18.824;2023-03-04T04:56:33;97619.53;;;0.43;75.21
67397;BME280;57728;50.448;18.824;2023-03-04T04:58:36;97643.19;;;0.62;75.43
67397;BME280;57728;50.448;18.824;2023-03-04T05:00:37;97635.28;;;0.61;75.27
67397;BME280;57728;50.448;18.824;2023-03-04T05:02:39;97647.47;;;0.72;75.37
67397;BME280;57728;50.448;18.824;2023-03-04T05:04:41;97655.13;;;0.75;75.47
67397;BME280;57728;50.448;18.824;2023-03-04T05:06:43;97662.16;;;0.76;75.07
67397;BME280;57728;50.448;18.824;2023-03-04T05:08:44;97600.94;;;0.41;74.78
67397;BME280;57728;50.448;18.824;2023-03-04T05:10:47;97629.94;;;0.61;74.93
67397;BME280;57728;50.448;18.824;2023-03-04T05:12:49;97641.16;;;0.64;74.94
67397;BME280;57728;50.448;18.824;2023-03-04T05:14:50;97415.94;;;-0.73;74.76
67397;BME280;57728;50.448;18.824;2023-03-04T05:16:52;97575.09;;;0.25;74.75
67397;BME280;57728;50.448;18.824;2023-03-04T05:18:54;97567.41;;;0.22;74.90
67397;BME280;57728;50.448;18.824;2023-03-04T05:20:58;97615.06;;;0.58;74.70
67397;BME280;57728;50.448;18.824;2023-03-04T05:23:02;97558.91;;;0.19;74.67
67397;BME280;57728;50.448;18.824;2023-03-04T05:25:04;97630.44;;;0.64;74.59
67397;BME280;57728;50.448;18.824;2023-03-04T05:27:07;97619.81;;;0.48;74.50
67397;BME280;57728;50.448;18.824;2023-03-04T05:29:09;97641.69;;;0.60;74.73
67397;BME280;57728;50.448;18.824;2023-03-04T05:31:11;97548.44;;;0.09;74.48
67397;BME280;57728;50.448;18.824;2023-03-04T05:33:15;97606.81;;;0.37;74.33
67397;BME280;57728;50.448;18.824;2023-03-04T05:35:21;97545.75;;;0.09;74.30
67397;BME280;57728;50.448;18.824;2023-03-04T05:37:22;97592.44;;;0.38;74.11
67397;BME280;57728;50.448;18.824;2023-03-04T05:39:23;97611.25;;;0.53;73.93
67397;BME280;57728;50.448;18.824;2023-03-04T05:41:26;97580.03;;;0.37;74.14
67397;BME280;57728;50.448;18.824;2023-03-04T05:43:28;97614.53;;;0.63;73.91
67397;BME280;57728;50.448;18.824;2023-03-04T05:45:30;97604.59;;;0.48;73.74
67397;BME280;57728;50.448;18.824;2023-03-04T05:47:32;97594.34;;;0.52;73.88
67397;BME280;57728;50.448;18.824;2023-03-04T05:49:33;97598.63;;;0.61;73.96
67397;BME280;57728;50.448;18.824;2023-03-04T05:51:35;97611.63;;;0.73;73.55
67397;BME280;57728;50.448;18.824;2023-03-04T05:53:37;97591.78;;;0.59;73.49
67397;BME280;57728;50.448;18.824;2023-03-04T05:55:40;97544.22;;;0.38;72.91
67397;BME280;57728;50.448;18.824;2023-03-04T05:57:47;97506.56;;;0.16;72.73
67397;BME280;57728;50.448;18.824;2023-03-04T05:59:49;97583.69;;;0.67;72.81
67397;BME280;57728;50.448;18.824;2023-03-04T06:01:51;97579.84;;;0.70;72.77
67397;BME280;57728;50.448;18.824;2023-03-04T06:03:53;97588.16;;;0.75;72.78
67397;BME280;57728;50.448;18.824;2023-03-04T06:05:55;97593.44;;;0.83;72.49
67397;BME280;57728;50.448;18.824;2023-03-04T06:07:57;97599.00;;;0.81;72.00
67397;BME280;57728;50.448;18.824;2023-03-04T06:09:59;97543.63;;;0.50;72.22
67397;BME280;57728;50.448;18.824;2023-03-04T06:12:01;97573.53;;;0.62;71.79
67397;BME280;57728;50.448;18.824;2023-03-04T06:14:03;97582.34;;;0.71;71.94
67397;BME280;57728;50.448;18.824;2023-03-04T06:16:05;97598.63;;;0.84;71.97
67397;BME280;57728;50.448;18.824;2023-03-04T06:18:07;97594.31;;;0.83;71.62
67397;BME280;57728;50.448;18.824;2023-03-04T06:20:10;97606.22;;;0.81;71.64
67397;BME280;57728;50.448;18.824;2023-03-04T06:22:12;97607.22;;;0.80;71.67
67397;BME280;57728;50.448;18.824;2023-03-04T06:24:15;97605.19;;;0.82;71.68
67397;BME280;57728;50.448;18.824;2023-03-04T06:26:16;97586.03;;;0.47;71.41
67397;BME280;57728;50.448;18.824;2023-03-04T06:28:17;97625.34;;;0.78;71.60
67397;BME280;57728;50.448;18.824;2023-03-04T06:30:21;97597.38;;;0.72;71.46
67397;BME280;57728;50.448;18.824;2023-03-04T06:32:23;97570.84;;;0.62;71.70
67397;BME280;57728;50.448;18.824;2023-03-04T06:34:25;97601.63;;;0.90;71.22
67397;BME280;57728;50.448;18.824;2023-03-04T06:36:28;97586.78;;;0.79;71.30
67397;BME280;57728;50.448;18.824;2023-03-04T06:38:30;97627.00;;;1.02;71.32
67397;BME280;57728;50.448;18.824;2023-03-04T06:40:31;97583.28;;;0.78;71.33
67397;BME280;57728;50.448;18.824;2023-03-04T06:42:34;97633.09;;;1.11;71.27
67397;BME280;57728;50.448;18.824;2023-03-04T06:44:37;97594.22;;;0.92;71.04
67397;BME280;57728;50.448;18.824;2023-03-04T06:46:38;97622.66;;;1.16;70.95
67397;BME280;57728;50.448;18.824;2023-03-04T06:48:40;97593.31;;;0.99;70.64
67397;BME280;57728;50.448;18.824;2023-03-04T06:50:42;97637.97;;;1.30;70.28
67397;BME280;57728;50.448;18.824;2023-03-04T06:52:43;97637.59;;;1.33;70.37
67397;BME280;57728;50.448;18.824;2023-03-04T06:54:45;97624.66;;;1.37;70.00
67397;BME280;57728;50.448;18.824;2023-03-04T06:56:47;97619.53;;;1.27;69.73
67397;BME280;57728;50.448;18.824;2023-03-04T06:58:48;97626.22;;;1.31;69.75
67397;BME280;57728;50.448;18.824;2023-03-04T07:00:51;97593.59;;;1.05;69.23
67397;BME280;57728;50.448;18.824;2023-03-04T07:02:52;97576.56;;;0.97;69.36
67397;BME280;57728;50.448;18.824;2023-03-04T07:04:54;97550.56;;;0.83;69.57
67397;BME280;57728;50.448;18.824;2023-03-04T07:06:58;97646.41;;;1.42;69.22
67397;BME280;57728;50.448;18.824;2023-03-04T07:08:59;97656.59;;;1.47;69.34
67397;BME280;57728;50.448;18.824;2023-03-04T07:11:02;97640.50;;;1.47;69.34
67397;BME280;57728;50.448;18.824;2023-03-04T07:13:08;97623.53;;;1.31;69.08
67397;BME280;57728;50.448;18.824;2023-03-04T07:15:12;97587.47;;;1.19;68.90
67397;BME280;57728;50.448;18.824;2023-03-04T07:17:14;97653.81;;;1.55;68.78
67397;BME280;57728;50.448;18.824;2023-03-04T07:19:16;97634.66;;;1.43;68.70
67397;BME280;57728;50.448;18.824;2023-03-04T07:21:18;97638.09;;;1.52;68.32
67397;BME280;57728;50.448;18.824;2023-03-04T07:23:19;97657.06;;;1.50;68.14
67397;BME280;57728;50.448;18.824;2023-03-04T07:25:22;97652.41;;;1.44;67.94
67397;BME280;57728;50.448;18.824;2023-03-04T07:27:23;97620.28;;;1.21;67.89
67397;BME280;57728;50.448;18.824;2023-03-04T07:29:25;97616.47;;;1.15;68.28
67397;BME280;57728;50.448;18.824;2023-03-04T07:31:30;97644.16;;;1.31;68.13
67397;BME280;57728;50.448;18.824;2023-03-04T07:33:33;97617.16;;;1.17;68.20
67397;BME280;57728;50.448;18.824;2023-03-04T07:35:35;97642.59;;;1.36;68.08
67397;BME280;57728;50.448;18.824;2023-03-04T07:37:38;97637.50;;;1.27;68.11
67397;BME280;57728;50.448;18.824;2023-03-04T07:39:40;97642.09;;;1.18;67.67
67397;BME280;57728;50.448;18.824;2023-03-04T07:41:44;97630.38;;;1.19;68.04
67397;BME280;57728;50.448;18.824;2023-03-04T07:43:50;97621.72;;;1.09;67.87
67397;BME280;57728;50.448;18.824;2023-03-04T07:45:52;97562.28;;;0.82;67.87
67397;BME280;57728;50.448;18.824;2023-03-04T07:47:59;97646.38;;;1.27;68.05
67397;BME280;57728;50.448;18.824;2023-03-04T07:50:04;97649.03;;;1.27;68.07
67397;BME280;57728;50.448;18.824;2023-03-04T07:52:06;97644.81;;;1.33;68.06
67397;BME280;57728;50.448;18.824;2023-03-04T07:54:08;97587.28;;;0.97;67.74
67397;BME280;57728;50.448;18.824;2023-03-04T07:56:14;97633.13;;;1.26;67.89
67397;BME280;57728;50.448;18.824;2023-03-04T07:58:19;97631.94;;;1.28;67.94
67397;BME280;57728;50.448;18.824;2023-03-04T08:00:21;97601.94;;;1.10;67.87
67397;BME280;57728;50.448;18.824;2023-03-04T08:02:24;97503.41;;;0.36;67.60
67397;BME280;57728;50.448;18.824;2023-03-04T08:04:27;97635.28;;;1.30;67.75
67397;BME280;57728;50.448;18.824;2023-03-04T08:06:30;97587.22;;;1.06;67.66
67397;BME280;57728;50.448;18.824;2023-03-04T08:08:35;97617.41;;;1.23;67.75
67397;BME280;57728;50.448;18.824;2023-03-04T08:10:37;97565.84;;;0.97;67.73
67397;BME280;57728;50.448;18.824;2023-03-04T08:12:39;97645.22;;;1.45;67.56
67397;BME280;57728;50.448;18.824;2023-03-04T08:14:42;97660.75;;;1.49;67.62
67397;BME280;57728;50.448;18.824;2023-03-04T08:16:43;97613.16;;;1.28;67.69
67397;BME280;57728;50.448;18.824;2023-03-04T08:18:49;97657.53;;;1.54;67.51
67397;BME280;57728;50.448;18.824;2023-03-04T08:20:58;97617.34;;;1.31;67.55
67397;BME280;57728;50.448;18.824;2023-03-04T08:23:00;97646.78;;;1.54;67.51
67397;BME280;57728;50.448;18.824;2023-03-04T08:25:01;97622.75;;;1.46;67.40
67397;BME280;57728;50.448;18.824;2023-03-04T08:27:04;97504.50;;;0.64;67.64
67397;BME280;57728;50.448;18.824;2023-03-04T08:29:10;97649.41;;;1.62;67.62
67397;BME280;57728;50.448;18.824;2023-03-04T08:31:17;97604.03;;;1.37;67.33
67397;BME280;57728;50.448;18.824;2023-03-04T08:33:20;97599.88;;;1.35;67.41
67397;BME280;57728;50.448;18.824;2023-03-04T08:35:22;97636.81;;;1.48;67.42
67397;BME280;57728;50.448;18.824;2023-03-04T08:37:23;97625.25;;;1.47;67.39
67397;BME280;57728;50.448;18.824;2023-03-04T08:39:25;97642.72;;;1.58;67.41
67397;BME280;57728;50.448;18.824;2023-03-04T08:41:27;97648.47;;;1.55;67.47
67397;BME280;57728;50.448;18.824;2023-03-04T08:43:30;97590.84;;;1.13;67.37
67397;BME280;57728;50.448;18.824;2023-03-04T08:45:33;97639.09;;;1.51;67.55
67397;BME280;57728;50.448;18.824;2023-03-04T08:47:34;97568.84;;;1.02;67.47
67397;BME280;57728;50.448;18.824;2023-03-04T08:49:36;97648.16;;;1.50;67.53
67397;BME280;57728;50.448;18.824;2023-03-04T08:51:39;97648.47;;;1.55;67.68
67397;BME280;57728;50.448;18.824;2023-03-04T08:53:42;97643.66;;;1.50;67.49
67397;BME280;57728;50.448;18.824;2023-03-04T08:55:44;97657.53;;;1.54;67.71
67397;BME280;57728;50.448;18.824;2023-03-04T08:57:47;97511.94;;;0.77;67.52
67397;BME280;57728;50.448;18.824;2023-03-04T08:59:48;97457.94;;;0.27;67.48
67397;BME280;57728;50.448;18.824;2023-03-04T09:01:49;97480.63;;;0.40;67.55
67397;BME280;57728;50.448;18.824;2023-03-04T09:03:54;97555.50;;;0.94;67.51
67397;BME280;57728;50.448;18.824;2023-03-04T09:05:56;97476.25;;;0.39;67.68
67397;BME280;57728;50.448;18.824;2023-03-04T09:07:58;97619.78;;;1.41;67.69
67397;BME280;57728;50.448;18.824;2023-03-04T09:10:01;97526.50;;;0.75;67.60
67397;BME280;57728;50.448;18.824;2023-03-04T09:12:03;97583.09;;;1.18;67.62
67397;BME280;57728;50.448;18.824;2023-03-04T09:14:05;97509.88;;;0.64;67.72
67397;BME280;57728;50.448;18.824;2023-03-04T09:16:13;97599.88;;;1.35;67.92
67397;BME280;57728;50.448;18.824;2023-03-04T09:18:21;97634.97;;;1.63;67.74
67397;BME280;57728;50.448;18.824;2023-03-04T09:20:23;97646.53;;;1.64;67.78
67397;BME280;57728;50.448;18.824;2023-03-04T09:22:26;97499.63;;;0.68;67.78
67397;BME280;57728;50.448;18.824;2023-03-04T09:24:27;97631.81;;;1.60;67.86
67397;BME280;57728;50.448;18.824;2023-03-04T09:26:36;97615.53;;;1.46;68.04
67397;BME280;57728;50.448;18.824;2023-03-04T09:28:38;97636.84;;;1.63;67.76
67397;BME280;57728;50.448;18.824;2023-03-04T09:30:42;97575.34;;;1.23;67.93
67397;BME280;57728;50.448;18.824;2023-03-04T09:32:44;97578.69;;;1.25;68.07
67397;BME280;57728;50.448;18.824;2023-03-04T09:34:48;97566.34;;;1.16;68.04
67397;BME280;57728;50.448;18.824;2023-03-04T09:36:49;97631.19;;;1.73;68.08
67397;BME280;57728;50.448;18.824;2023-03-04T09:38:51;97604.03;;;1.52;67.89
67397;BME280;57728;50.448;18.824;2023-03-04T09:40:53;97467.38;;;0.76;67.92
67397;BME280;57728;50.448;18.824;2023-03-04T09:42:59;97428.25;;;0.52;67.81
67397;BME280;57728;50.448;18.824;2023-03-04T09:45:07;97566.13;;;1.41;68.08
67397;BME280;57728;50.448;18.824;2023-03-04T09:47:15;97549.19;;;1.25;68.32
67397;BME280;57728;50.448;18.824;2023-03-04T09:49:22;97519.19;;;1.07;68.34
67397;BME280;57728;50.448;18.824;2023-03-04T09:56:39;97490.91;;;1.04;68.53
67397;BME280;57728;50.448;18.824;2023-03-04T10:01:49;97459.94;;;0.87;68.63
67397;BME280;57728;50.448;18.824;2023-03-04T10:04:05;97619.06;;;1.92;68.72
67397;BME280;57728;50.448;18.824;2023-03-04T10:06:19;97620.72;;;1.93;68.67
67397;BME280;57728;50.448;18.824;2023-03-04T10:09:02;97613.50;;;1.93;68.87
67397;BME280;57728;50.448;18.824;2023-03-04T10:14:03;97493.06;;;1.24;68.91
67397;BME280;57728;50.448;18.824;2023-03-04T10:16:23;97453.75;;;1.01;69.01
67397;BME280;57728;50.448;18.824;2023-03-04T10:18:40;97614.63;;;1.84;69.17
67397;BME280;57728;50.448;18.824;2023-03-04T10:23:09;97607.84;;;1.88;69.50
67397;BME280;57728;50.448;18.824;2023-03-04T10:25:20;97601.84;;;1.86;69.63
67397;BME280;57728;50.448;18.824;2023-03-04T10:27:30;97621.00;;;1.83;69.89
67397;BME280;57728;50.448;18.824;2023-03-04T10:29:33;97414.78;;;0.60;70.05
67397;BME280;57728;50.448;18.824;2023-03-04T10:31:36;97559.63;;;1.35;70.10
67397;BME280;57728;50.448;18.824;2023-03-04T10:33:39;97439.03;;;0.82;70.30
67397;BME280;57728;50.448;18.824;2023-03-04T10:35:48;97375.94;;;0.26;70.38
67397;BME280;57728;50.448;18.824;2023-03-04T10:38:02;97515.13;;;1.26;70.58
67397;BME280;57728;50.448;18.824;2023-03-04T10:40:17;97526.59;;;1.19;70.63
67397;BME280;57728;50.448;18.824;2023-03-04T10:42:25;97393.75;;;0.57;70.71
67397;BME280;57728;50.448;18.824;2023-03-04T10:44:33;97534.00;;;1.32;70.69
67397;BME280;57728;50.448;18.824;2023-03-04T10:46:39;97557.91;;;1.57;70.66
67397;BME280;57728;50.448;18.824;2023-03-04T10:48:44;97592.97;;;1.70;70.93
67397;BME280;57728;50.448;18.824;2023-03-04T10:50:46;97338.16;;;0.06;71.00
67397;BME280;57728;50.448;18.824;2023-03-04T10:52:48;97510.63;;;1.26;71.15
67397;BME280;57728;50.448;18.824;2023-03-04T10:54:57;97576.31;;;1.60;71.31
67397;BME280;57728;50.448;18.824;2023-03-04T10:57:33;97591.94;;;1.57;71.49
67397;BME280;57728;50.448;18.824;2023-03-04T11:02:05;97422.53;;;0.55;71.50
67397;BME280;57728;50.448;18.824;2023-03-04T11:04:17;97547.34;;;1.41;71.71
67397;BME280;57728;50.448;18.824;2023-03-04T11:06:21;97576.88;;;1.56;72.03
67397;BME280;57728;50.448;18.824;2023-03-04T11:08:24;97450.69;;;0.89;71.71
67397;BME280;57728;50.448;18.824;2023-03-04T11:12:36;97412.13;;;0.60;71.84
67397;BME280;57728;50.448;18.824;2023-03-04T11:14:45;97516.91;;;1.18;72.08